Time;durP1;ratioP1;P1;durP2;ratioP2;P2;SDS_P1;SDS_P2;PMS_P1;PMS_P2;Temp;Humidity;BMP_temperature;BMP_pressure;BME280_temperature;BME280_humidity;BME280_pressure;Samples;Min_cycle;Max_cycle;Signal;HPM_P1;HPM_P2
2022/06/18 00:00:01;;;;;;;4.70;2.88;;;;;;;22.88;59.54;101551.66;172671;28;1085;-67
2022/06/18 00:00:12;;;;;;;4.50;2.83;;;;;;;22.88;59.63;101556.97;172685;28;923;-68
2022/06/18 00:00:22;;;;;;;4.21;2.76;;;;;;;22.86;59.65;101550.94;172638;28;1205;-67
2022/06/18 00:00:28;;;;;;;4.50;2.53;;;;;;;22.84;59.76;101557.34;172621;28;1187;-67
2022/06/18 00:00:33;;;;;;;4.28;2.53;;;;;;;22.83;59.60;101545.91;172647;28;1093;-67
2022/06/18 00:00:38;;;;;;;4.70;2.57;;;;;;;22.83;59.53;101551.22;172651;28;852;-68
2022/06/18 00:00:45;;;;;;;4.35;2.67;;;;;;;22.82;59.80;101549.50;172578;28;1022;-68
2022/06/18 00:00:52;;;;;;;4.30;2.70;;;;;;;22.82;59.65;101549.50;172519;28;927;-68
2022/06/18 00:00:58;;;;;;;4.42;2.80;;;;;;;22.85;59.52;101549.25;172546;28;986;-68
2022/06/18 00:01:05;;;;;;;5.13;2.90;;;;;;;22.86;59.29;101550.09;171773;28;1419;-68
2022/06/18 00:01:11;;;;;;;4.30;2.86;;;;;;;22.87;59.41;101552.63;171951;28;982;-67
2022/06/18 00:01:16;;;;;;;4.00;2.83;;;;;;;22.89;59.42;101555.19;171883;28;1038;-68
2022/06/18 00:01:33;;;;;;;3.90;2.97;;;;;;;22.88;59.50;101554.31;171871;28;859;-67
2022/06/18 00:01:39;;;;;;;3.69;2.92;;;;;;;22.88;59.53;101551.66;171954;28;1242;-68
2022/06/18 00:01:45;;;;;;;4.26;2.96;;;;;;;22.88;59.36;101559.66;172503;28;1030;-67
2022/06/18 00:01:50;;;;;;;4.60;3.00;;;;;;;22.88;59.52;101549.00;172662;28;1081;-68
2022/06/18 00:01:57;;;;;;;5.38;3.10;;;;;;;22.87;59.69;101555.31;172574;28;1412;-67
2022/06/18 00:02:10;;;;;;;5.72;3.17;;;;;;;22.84;59.75;101546.72;172704;28;816;-68
2022/06/18 00:02:18;;;;;;;7.11;3.21;;;;;;;22.80;60.03;101553.28;172665;28;1387;-67
2022/06/18 00:02:24;;;;;;;7.03;3.10;;;;;;;22.77;59.87;101552.56;171679;28;1030;-67
2022/06/18 00:02:29;;;;;;;6.87;3.10;;;;;;;22.80;59.76;101550.59;171849;28;922;-67
2022/06/18 00:02:34;;;;;;;6.17;3.03;;;;;;;22.81;59.62;101547.81;172636;28;1030;-68
2022/06/18 00:02:41;;;;;;;5.25;2.95;;;;;;;22.82;59.64;101552.16;172664;28;919;-67
2022/06/18 00:02:47;;;;;;;5.04;2.98;;;;;;;22.83;59.53;101548.56;172651;28;1036;-68
2022/06/18 00:02:53;;;;;;;5.40;3.00;;;;;;;22.85;59.54;101551.91;172579;28;896;-68
2022/06/18 00:02:58;;;;;;;5.17;2.90;;;;;;;22.86;59.55;101550.94;172623;28;946;-68
2022/06/18 00:03:04;;;;;;;4.70;2.83;;;;;;;22.87;59.59;101547.31;173172;28;1054;-67
2022/06/18 00:03:11;;;;;;;4.47;2.80;;;;;;;22.87;59.68;101552.63;173355;28;863;-67
2022/06/18 00:03:18;;;;;;;4.10;2.70;;;;;;;22.86;59.63;101550.94;173329;28;998;-68
2022/06/18 00:03:25;;;;;;;3.73;2.77;;;;;;;22.86;59.91;101550.94;173344;28;887;-67
2022/06/18 00:03:30;;;;;;;4.62;2.78;;;;;;;22.87;59.61;101552.63;172553;28;1147;-68
2022/06/18 00:03:36;;;;;;;5.73;2.80;;;;;;;22.88;59.45;101549.00;172670;28;923;-68
2022/06/18 00:03:42;;;;;;;5.70;2.80;;;;;;;22.90;59.54;101554.19;172707;28;914;-68
2022/06/18 00:03:47;;;;;;;5.80;2.90;;;;;;;22.89;59.43;101548.03;172643;28;1089;-68
2022/06/18 00:03:53;;;;;;;6.83;3.00;;;;;;;22.91;59.49;101553.22;172668;28;1042;-68
2022/06/18 00:04:18;;;;;;;7.63;3.07;;;;;;;22.92;59.48;101549.56;171908;28;728;-67
2022/06/18 00:04:25;;;;;;;6.79;3.03;;;;;;;22.91;59.42;101547.91;171923;28;1227;-68
2022/06/18 00:04:30;;;;;;;5.26;2.76;;;;;;;22.90;59.27;101560.34;171991;28;987;-67
2022/06/18 00:04:36;;;;;;;3.97;2.70;;;;;;;22.91;59.37;101553.22;171962;28;1163;-67
2022/06/18 00:04:43;;;;;;;3.83;2.70;;;;;;;22.86;59.79;101550.94;172035;28;982;-67
2022/06/18 00:04:48;;;;;;;3.55;2.80;;;;;;;22.78;60.20;101553.41;171941;28;974;-67
2022/06/18 00:04:54;;;;;;;3.13;2.83;;;;;;;22.79;60.18;101549.78;171923;28;994;-67
2022/06/18 00:04:59;;;;;;;3.30;2.83;;;;;;;22.81;59.84;101553.16;171907;28;1050;-68
2022/06/18 00:05:06;;;;;;;3.65;2.83;;;;;;;22.82;59.97;101554.81;171982;28;876;-68
2022/06/18 00:05:15;;;;;;;3.90;2.80;;;;;;;22.84;59.67;101550.22;172028;28;1043;-67
2022/06/18 00:05:22;;;;;;;3.87;2.70;;;;;;;22.85;59.61;101554.56;172002;28;1062;-67
2022/06/18 00:05:28;;;;;;;4.22;2.70;;;;;;;22.85;59.70;101551.91;171917;28;1152;-67
2022/06/18 00:05:34;;;;;;;4.72;2.70;;;;;;;22.84;59.65;101552.03;172672;28;1081;-67
2022/06/18 00:05:43;;;;;;;4.85;2.70;;;;;;;22.84;59.73;101552.03;172665;28;978;-67
2022/06/18 00:05:56;;;;;;;5.77;2.80;;;;;;;22.84;59.44;101552.91;172665;28;1045;-67
2022/06/18 00:06:01;;;;;;;6.51;2.80;;;;;;;22.86;59.51;101555.44;172695;28;1216;-67
2022/06/18 00:06:08;;;;;;;6.30;2.70;;;;;;;22.87;59.55;101549.97;172695;28;852;-68
2022/06/18 00:06:14;;;;;;;6.20;2.70;;;;;;;22.88;59.64;101551.66;172729;28;1160;-67
2022/06/18 00:06:19;;;;;;;6.53;2.80;;;;;;;22.88;59.47;101556.97;172557;28;1290;-68
2022/06/18 00:06:24;;;;;;;5.67;2.80;;;;;;;22.89;59.56;101556.00;171900;28;1018;-68
2022/06/18 00:06:35;;;;;;;5.15;2.80;;;;;;;22.90;59.57;101552.34;171986;28;999;-68
2022/06/18 00:07:04;;;;;;;5.07;3.00;;;;;;;22.90;59.43;101557.69;171990;28;1225;-68
2022/06/18 00:07:18;;;;;;;4.35;2.88;;;;;;;22.87;59.73;101551.78;171862;28;1521;-68
2022/06/18 00:07:24;;;;;;;4.69;2.76;;;;;;;22.88;59.60;101556.97;171928;28;1227;-67
2022/06/18 00:07:31;;;;;;;5.43;2.80;;;;;;;22.88;59.72;101551.66;171989;28;983;-67
2022/06/18 00:07:43;;;;;;;5.36;2.74;;;;;;;22.88;59.75;101559.66;171999;28;900;-67
2022/06/18 00:07:54;;;;;;;5.47;2.67;;;;;;;22.90;59.58;101555.03;171968;28;1227;-68
2022/06/18 00:08:01;;;;;;;4.24;2.70;;;;;;;22.85;59.86;101549.25;171955;28;1243;-67
2022/06/18 00:08:18;;;;;;;5.70;2.80;;;;;;;22.84;59.59;101552.91;171982;28;990;-67
2022/06/18 00:08:29;;;;;;;5.38;2.74;;;;;;;22.86;59.58;101556.25;172649;28;1218;-68
2022/06/18 00:08:35;;;;;;;4.11;2.61;;;;;;;22.87;59.54;101552.63;172638;28;1212;-67
2022/06/18 00:08:41;;;;;;;3.35;2.63;;;;;;;22.87;59.50;101555.31;172662;28;950;-68
2022/06/18 00:08:46;;;;;;;4.30;2.77;;;;;;;22.87;59.47;101557.97;172713;28;1260;-67
2022/06/18 00:08:52;;;;;;;4.70;2.80;;;;;;;22.88;59.46;101554.31;172671;28;940;-67
2022/06/18 00:08:58;;;;;;;5.17;2.90;;;;;;;22.88;59.42;101554.31;172661;28;1034;-68
2022/06/18 00:09:05;;;;;;;6.04;2.94;;;;;;;22.88;59.55;101554.31;171825;28;2667;-68
2022/06/18 00:09:14;;;;;;;7.13;2.97;;;;;;;22.88;59.45;101546.34;172618;28;931;-68
2022/06/18 00:09:26;;;;;;;6.95;2.99;;;;;;;22.88;59.64;101551.66;172621;28;1146;-68
2022/06/18 00:09:38;;;;;;;8.20;3.09;;;;;;;22.87;59.64;101555.31;172652;28;1208;-67
2022/06/18 00:09:55;;;;;;;6.34;3.04;;;;;;;22.80;60.17;101551.47;172713;28;1220;-68
2022/06/18 00:10:04;;;;;;;6.55;2.92;;;;;;;22.80;60.07;101554.13;171849;28;1413;-68
2022/06/18 00:10:20;;;;;;;6.67;2.80;;;;;;;22.82;60.02;101554.81;171954;28;927;-67
2022/06/18 00:10:29;;;;;;;6.72;2.79;;;;;;;22.82;59.79;101549.50;171968;28;1235;-68
2022/06/18 00:10:35;;;;;;;5.40;3.00;;;;;;;22.81;59.80;101553.16;171986;28;1030;-68
2022/06/18 00:10:41;;;;;;;5.50;3.00;;;;;;;22.81;59.91;101547.81;171977;28;1014;-68
2022/06/18 00:13:39;;;;;;;5.12;2.96;;;;;;;22.83;59.91;101553.88;171943;28;1520;-67
2022/06/18 00:13:39;;;;;;;4.61;2.80;;;;;;;22.73;60.11;101540.50;172636;28;1181;-68
2022/06/18 00:13:47;;;;;;;5.17;3.00;;;;;;;22.75;60.16;101543.03;172762;28;868;-68
2022/06/18 00:13:52;;;;;;;6.07;2.93;;;;;;;22.75;60.18;101543.84;172672;28;978;-67
2022/06/18 00:13:58;;;;;;;6.00;2.90;;;;;;;22.77;60.16;101549.91;172730;28;915;-67
2022/06/18 00:14:03;;;;;;;6.00;2.93;;;;;;;22.77;60.03;101557.03;172720;28;896;-67
2022/06/18 00:14:11;;;;;;;6.05;2.97;;;;;;;22.72;60.15;101541.44;172690;28;1002;-67
2022/06/18 00:14:16;;;;;;;5.44;2.90;;;;;;;22.74;60.08;101546.66;172752;28;919;-67
2022/06/18 00:14:22;;;;;;;4.88;2.92;;;;;;;22.73;60.05;101551.13;172700;28;974;-67
2022/06/18 00:14:27;;;;;;;4.07;2.85;;;;;;;22.73;60.19;101547.63;172629;28;915;-67
2022/06/18 00:14:33;;;;;;;4.37;2.77;;;;;;;22.74;60.24;101544.84;172668;28;911;-67
2022/06/18 00:14:39;;;;;;;3.78;2.63;;;;;;;22.73;60.24;101547.63;172666;28;868;-68
2022/06/18 00:14:45;;;;;;;4.15;2.63;;;;;;;22.70;60.39;101546.06;172723;28;766;-68
2022/06/18 00:14:51;;;;;;;4.30;2.70;;;;;;;22.71;60.17;101549.56;172684;28;1137;-68
2022/06/18 00:14:57;;;;;;;4.53;2.80;;;;;;;22.72;60.21;101549.44;172687;28;1054;-68
2022/06/18 00:15:30;;;;;;;4.57;3.00;;;;;;;22.73;60.20;101545.81;172672;28;904;-68
2022/06/18 00:15:40;;;;;;;5.10;2.86;;;;;;;22.76;60.23;101545.53;172080;28;1254;-68
2022/06/18 00:15:45;;;;;;;4.70;2.77;;;;;;;22.77;60.00;101546.41;171861;28;1467;-67
2022/06/18 00:15:51;;;;;;;4.68;2.70;;;;;;;22.76;60.17;101550.84;171996;28;801;-68
2022/06/18 00:15:58;;;;;;;5.30;2.70;;;;;;;22.76;60.21;101550.84;172019;28;911;-68
2022/06/18 00:16:03;;;;;;;4.57;2.70;;;;;;;22.77;60.27;101543.72;172031;28;986;-67
2022/06/18 00:16:15;;;;;;;4.70;2.75;;;;;;;22.77;60.17;101551.72;171994;28;935;-68
2022/06/18 00:16:22;;;;;;;5.03;2.87;;;;;;;22.78;60.46;101553.41;171943;28;1227;-68
2022/06/18 00:16:29;;;;;;;4.92;2.94;;;;;;;22.77;60.43;101543.72;172413;28;1152;-68
2022/06/18 00:16:36;;;;;;;4.73;3.00;;;;;;;22.77;60.17;101541.06;172649;28;949;-67
2022/06/18 00:16:41;;;;;;;4.38;2.92;;;;;;;22.76;60.33;101542.06;172662;28;915;-67
2022/06/18 00:16:46;;;;;;;4.35;2.92;;;;;;;22.76;60.36;101544.72;172695;28;986;-67
2022/06/18 00:16:52;;;;;;;4.10;2.97;;;;;;;22.76;60.25;101544.72;172597;28;1227;-68
2022/06/18 00:16:57;;;;;;;4.13;2.95;;;;;;;22.76;60.34;101544.72;172659;28;855;-68
2022/06/18 00:17:15;;;;;;;4.63;3.00;;;;;;;22.75;60.62;101543.03;172658;28;907;-68
2022/06/18 00:17:21;;;;;;;5.20;2.94;;;;;;;22.76;60.34;101547.38;172618;28;1300;-68
2022/06/18 00:17:27;;;;;;;5.60;2.80;;;;;;;22.73;60.08;101539.66;172618;28;947;-67
2022/06/18 00:17:32;;;;;;;5.40;2.80;;;;;;;22.67;60.68;101542.81;172694;28;966;-68
2022/06/18 00:17:38;;;;;;;5.30;2.80;;;;;;;22.66;60.59;101541.13;172643;28;994;-67
2022/06/18 00:17:45;;;;;;;4.45;2.78;;;;;;;22.68;60.49;101542.69;172977;28;946;-67
2022/06/18 00:17:51;;;;;;;4.97;2.80;;;;;;;22.66;60.68;101538.47;173344;28;982;-67
2022/06/18 00:17:57;;;;;;;4.63;2.85;;;;;;;22.61;60.82;101537.03;173344;28;915;-67
2022/06/18 00:18:11;;;;;;;4.53;3.00;;;;;;;22.63;60.58;101535.09;173354;28;1066;-67
2022/06/18 00:18:16;;;;;;;4.15;2.90;;;;;;;22.67;60.50;101540.16;173379;28;1224;-68
2022/06/18 00:18:22;;;;;;;3.40;2.87;;;;;;;22.68;60.54;101544.53;173344;28;761;-68
2022/06/18 00:18:28;;;;;;;3.58;2.72;;;;;;;22.69;60.67;101538.22;172798;28;765;-67
2022/06/18 00:18:33;;;;;;;5.50;2.63;;;;;;;22.69;60.49;101538.22;172712;28;1372;-68
2022/06/18 00:18:40;;;;;;;6.00;2.70;;;;;;;22.69;60.46;101532.91;172683;28;824;-68
2022/06/18 00:18:46;;;;;;;5.92;2.66;;;;;;;22.69;60.62;101538.22;172725;28;1002;-68
2022/06/18 00:18:51;;;;;;;5.80;2.80;;;;;;;22.68;60.54;101541.84;172695;28;900;-68
2022/06/18 00:18:58;;;;;;;6.00;2.90;;;;;;;22.61;60.93;101541.50;172686;28;948;-67
2022/06/18 00:19:03;;;;;;;5.25;2.90;;;;;;;22.55;61.22;101537.53;172675;28;931;-68
2022/06/18 00:19:09;;;;;;;5.28;3.05;;;;;;;22.54;61.11;101540.31;172676;28;994;-67
2022/06/18 00:19:15;;;;;;;6.40;3.20;;;;;;;22.57;60.88;101543.59;172705;28;773;-67
2022/06/18 00:19:20;;;;;;;6.57;3.20;;;;;;;22.58;60.88;101537.28;172701;28;880;-68
2022/06/18 00:19:26;;;;;;;7.20;3.20;;;;;;;22.59;60.76;101541.66;172708;28;844;-68
2022/06/18 00:19:31;;;;;;;5.70;3.13;;;;;;;22.60;60.82;101539.81;172657;28;935;-68
2022/06/18 00:19:36;;;;;;;6.30;3.03;;;;;;;22.61;60.73;101536.19;172675;28;927;-68
2022/06/18 00:19:46;;;;;;;6.37;2.87;;;;;;;22.62;60.83;101543.22;172692;28;907;-68
2022/06/18 00:19:52;;;;;;;5.22;2.67;;;;;;;22.57;61.40;101535.59;172679;28;1138;-67
2022/06/18 00:19:57;;;;;;;5.45;2.70;;;;;;;22.56;61.20;101539.25;172556;28;875;-67
2022/06/18 00:20:04;;;;;;;5.10;2.70;;;;;;;22.58;60.89;101537.28;172625;28;923;-68
2022/06/18 00:20:13;;;;;;;4.55;2.78;;;;;;;22.60;60.84;101540.69;171910;28;1030;-68
2022/06/18 00:20:21;;;;;;;4.26;2.84;;;;;;;22.64;60.87;101541.25;171913;28;1187;-67
2022/06/18 00:20:33;;;;;;;3.99;2.87;;;;;;;22.61;61.08;101536.19;171844;28;1163;-68
2022/06/18 00:20:40;;;;;;;3.51;2.81;;;;;;;22.61;60.71;101537.03;171955;28;1235;-67
2022/06/18 00:20:45;;;;;;;3.98;2.78;;;;;;;22.63;60.69;101543.09;171997;28;942;-68
2022/06/18 00:20:52;;;;;;;4.33;2.80;;;;;;;22.64;60.60;101539.44;171964;28;851;-68
2022/06/18 00:21:01;;;;;;;5.10;2.84;;;;;;;22.66;60.66;101543.78;171965;28;907;-68
2022/06/18 00:21:11;;;;;;;5.56;2.86;;;;;;;22.67;60.76;101540.16;171908;28;1153;-68
2022/06/18 00:21:22;;;;;;;5.26;2.85;;;;;;;22.67;60.64;101545.47;172017;28;1156;-68
2022/06/18 00:21:28;;;;;;;5.07;2.87;;;;;;;22.68;60.53;101541.84;171926;28;1240;-68
2022/06/18 00:21:33;;;;;;;4.97;2.83;;;;;;;22.67;60.58;101543.66;171781;28;1906;-68
2022/06/18 00:21:39;;;;;;;4.90;2.90;;;;;;;22.69;60.43;101543.53;171921;28;930;-68
2022/06/18 00:21:45;;;;;;;4.85;2.90;;;;;;;22.67;60.46;101546.31;172001;28;868;-68
2022/06/18 00:21:51;;;;;;;3.97;2.83;;;;;;;22.66;60.62;101535.81;171989;28;1252;-68
2022/06/18 00:21:56;;;;;;;4.32;2.80;;;;;;;22.67;60.56;101540.16;172327;28;978;-68
2022/06/18 00:22:03;;;;;;;4.33;2.80;;;;;;;22.67;60.34;101542.81;172565;28;839;-68
2022/06/18 00:22:14;;;;;;;4.46;2.80;;;;;;;22.68;60.68;101539.19;172665;28;994;-67
2022/06/18 00:22:23;;;;;;;4.98;2.84;;;;;;;22.68;60.38;101539.19;173291;28;1437;-68
2022/06/18 00:22:29;;;;;;;5.91;3.00;;;;;;;22.69;60.49;101546.19;173310;28;1045;-68
2022/06/18 00:22:34;;;;;;;5.67;3.00;;;;;;;22.68;60.83;101541.84;173343;28;1177;-68
2022/06/18 00:22:44;;;;;;;5.33;3.00;;;;;;;22.66;60.67;101543.78;173337;28;943;-68
2022/06/18 00:22:54;;;;;;;5.51;2.96;;;;;;;22.68;60.66;101536.53;172549;28;1374;-68
2022/06/18 00:23:03;;;;;;;4.94;2.90;;;;;;;22.68;60.50;101547.19;172521;28;2460;-68
2022/06/18 00:23:17;;;;;;;5.83;2.93;;;;;;;22.68;60.70;101541.84;172660;28;951;-68
2022/06/18 00:23:22;;;;;;;5.65;3.00;;;;;;;22.66;61.08;101538.47;172640;28;1219;-68
2022/06/18 00:23:29;;;;;;;5.20;3.00;;;;;;;22.65;60.75;101537.63;172659;28;966;-68
2022/06/18 00:23:38;;;;;;;4.74;2.90;;;;;;;22.66;60.80;101536.66;172536;28;1158;-67
2022/06/18 00:23:44;;;;;;;4.53;2.90;;;;;;;22.66;60.67;101538.47;172591;28;883;-68
2022/06/18 00:23:49;;;;;;;4.38;2.80;;;;;;;22.66;60.83;101539.31;172704;28;856;-67
2022/06/18 00:23:55;;;;;;;4.90;2.80;;;;;;;22.65;60.67;101537.63;172658;28;918;-68
2022/06/18 00:24:00;;;;;;;4.82;2.80;;;;;;;22.67;60.75;101540.16;172639;28;884;-68
2022/06/18 00:24:16;;;;;;;5.23;2.80;;;;;;;22.67;60.91;101542.81;172625;28;923;-68
2022/06/18 00:24:22;;;;;;;5.07;2.80;;;;;;;22.64;60.89;101536.78;172592;28;1229;-68
2022/06/18 00:24:29;;;;;;;4.80;2.90;;;;;;;22.60;61.31;101540.69;172678;28;876;-68
2022/06/18 00:24:34;;;;;;;4.56;2.92;;;;;;;22.56;61.14;101541.91;172659;28;907;-68
2022/06/18 00:24:42;;;;;;;5.07;2.97;;;;;;;22.57;61.32;101542.72;172695;28;935;-68
2022/06/18 00:24:50;;;;;;;5.30;2.97;;;;;;;22.58;61.00;101537.28;172950;28;1050;-68
2022/06/18 00:24:55;;;;;;;5.32;2.90;;;;;;;22.60;61.20;101538.00;173361;28;985;-68
2022/06/18 00:25:01;;;;;;;5.87;2.90;;;;;;;22.60;61.25;101539.81;173317;28;923;-68
2022/06/18 00:25:19;;;;;;;5.72;2.90;;;;;;;22.60;61.29;101540.69;173306;28;922;-68
2022/06/18 00:25:32;;;;;;;5.86;2.90;;;;;;;22.61;61.11;101539.69;173283;28;1236;-68
2022/06/18 00:25:41;;;;;;;6.41;3.06;;;;;;;22.60;61.16;101546.00;172645;28;1638;-68
2022/06/18 00:25:51;;;;;;;6.14;3.10;;;;;;;22.58;60.99;101539.94;172743;28;1141;-67
2022/06/18 00:25:56;;;;;;;6.09;3.01;;;;;;;22.59;61.17;101544.31;172659;28;1149;-68
2022/06/18 00:26:02;;;;;;;5.43;2.90;;;;;;;22.59;60.99;101536.34;172710;28;955;-67
2022/06/18 00:26:10;;;;;;;5.10;2.85;;;;;;;22.59;60.96;101539.00;172711;28;824;-68
2022/06/18 00:26:16;;;;;;;4.98;2.88;;;;;;;22.60;61.06;101540.69;172742;28;946;-68
2022/06/18 00:26:22;;;;;;;4.95;2.88;;;;;;;22.60;60.96;101540.69;172690;28;899;-68
2022/06/18 00:26:27;;;;;;;4.78;2.90;;;;;;;22.57;61.32;101546.25;172702;28;895;-68
2022/06/18 00:26:32;;;;;;;4.40;2.90;;;;;;;22.57;61.03;101535.59;172701;28;906;-68
2022/06/18 00:26:38;;;;;;;4.05;2.80;;;;;;;22.58;61.15;101537.28;172658;28;956;-68
2022/06/18 00:26:45;;;;;;;4.93;2.90;;;;;;;22.58;61.11;101537.28;172661;28;964;-68
2022/06/18 00:26:50;;;;;;;5.60;2.93;;;;;;;22.59;61.05;101541.66;172620;28;1002;-68
2022/06/18 00:26:55;;;;;;;5.27;2.83;;;;;;;22.58;61.12;101539.94;172694;28;832;-68
2022/06/18 00:27:01;;;;;;;6.20;2.85;;;;;;;22.58;61.23;101537.28;172684;28;930;-68
2022/06/18 00:27:11;;;;;;;6.77;2.90;;;;;;;22.59;61.01;101541.66;172696;28;848;-68
2022/06/18 00:27:17;;;;;;;5.75;2.78;;;;;;;22.54;61.26;101530.50;172728;28;1143;-68
2022/06/18 00:27:23;;;;;;;5.32;2.88;;;;;;;22.56;61.17;101533.94;172704;28;1030;-68
2022/06/18 00:27:28;;;;;;;5.53;2.97;;;;;;;22.54;61.24;101540.31;172719;28;923;-68
2022/06/18 00:27:34;;;;;;;5.53;3.00;;;;;;;22.54;61.12;101541.13;172686;28;848;-68
2022/06/18 00:27:39;;;;;;;5.38;3.08;;;;;;;22.55;61.17;101534.88;172704;28;904;-67
2022/06/18 00:27:45;;;;;;;5.33;3.07;;;;;;;22.55;61.32;101542.84;172683;28;908;-68
2022/06/18 00:27:51;;;;;;;5.40;2.97;;;;;;;22.53;61.22;101536.81;172661;28;1006;-67
2022/06/18 00:27:57;;;;;;;6.07;2.90;;;;;;;22.49;61.46;101532.72;172637;28;894;-67
2022/06/18 00:28:20;;;;;;;6.37;2.93;;;;;;;22.49;61.41;101543.34;172631;28;1282;-67
2022/06/18 00:28:31;;;;;;;5.70;3.00;;;;;;;22.50;61.27;101542.38;172651;28;1232;-68
2022/06/18 00:28:37;;;;;;;4.86;3.02;;;;;;;22.52;61.40;101537.78;172674;28;1257;-68
2022/06/18 00:28:44;;;;;;;5.25;3.00;;;;;;;22.52;61.40;101537.78;172560;28;931;-68
2022/06/18 00:28:49;;;;;;;4.86;3.00;;;;;;;22.53;61.24;101539.47;172617;28;1165;-68
2022/06/18 00:28:55;;;;;;;4.63;3.07;;;;;;;22.53;61.23;101536.81;172591;28;895;-68
2022/06/18 00:29:00;;;;;;;4.97;2.97;;;;;;;22.54;61.26;101538.47;172635;28;1017;-68
2022/06/18 00:29:13;;;;;;;4.30;2.83;;;;;;;22.54;61.19;101541.13;172655;28;1094;-68
2022/06/18 00:29:19;;;;;;;4.85;2.81;;;;;;;22.55;61.45;101537.53;172682;28;1210;-67
2022/06/18 00:29:24;;;;;;;5.07;2.72;;;;;;;22.55;61.23;101542.00;172658;28;852;-68
2022/06/18 00:29:29;;;;;;;4.70;2.77;;;;;;;22.55;61.13;101540.19;172582;28;876;-68
2022/06/18 00:29:35;;;;;;;4.88;2.90;;;;;;;22.55;61.30;101540.19;172647;28;1003;-68
2022/06/18 00:29:41;;;;;;;4.87;2.90;;;;;;;22.55;61.27;101534.88;172657;28;967;-67
2022/06/18 00:29:49;;;;;;;4.38;2.90;;;;;;;22.54;61.31;101535.81;172680;28;1038;-68
2022/06/18 00:29:55;;;;;;;5.14;3.00;;;;;;;22.55;61.12;101536.69;172587;28;1319;-68
2022/06/18 00:30:01;;;;;;;4.93;2.90;;;;;;;22.53;61.28;101536.81;172594;28;860;-67
2022/06/18 00:30:10;;;;;;;5.60;3.00;;;;;;;22.55;61.30;101544.66;172635;28;884;-67
2022/06/18 00:30:21;;;;;;;6.10;3.00;;;;;;;22.55;61.13;101539.34;172656;28;1043;-68
2022/06/18 00:30:29;;;;;;;5.77;3.07;;;;;;;22.55;61.25;101542.84;172635;28;1256;-68
2022/06/18 00:30:35;;;;;;;6.35;3.08;;;;;;;22.53;61.48;101542.13;172636;28;978;-67
2022/06/18 00:30:41;;;;;;;5.00;3.05;;;;;;;22.53;61.30;101539.47;172570;28;1336;-68
2022/06/18 00:30:50;;;;;;;4.97;3.00;;;;;;;22.49;61.69;101543.34;172708;28;943;-67
2022/06/18 00:30:56;;;;;;;4.93;3.00;;;;;;;22.49;61.52;101543.34;172658;28;981;-68
2022/06/18 00:31:01;;;;;;;5.57;2.97;;;;;;;22.49;61.42;101546.84;172660;28;967;-68
2022/06/18 00:31:07;;;;;;;6.50;3.10;;;;;;;22.50;61.33;101542.38;172637;28;1034;-68
2022/06/18 00:31:13;;;;;;;6.78;3.05;;;;;;;22.51;61.36;101538.72;172650;28;863;-67
2022/06/18 00:31:18;;;;;;;7.13;3.00;;;;;;;22.48;61.85;101539.00;172698;28;1198;-67
2022/06/18 00:31:23;;;;;;;6.50;2.90;;;;;;;22.47;61.58;101537.28;172665;28;887;-67
2022/06/18 00:31:32;;;;;;;5.95;2.90;;;;;;;22.44;61.79;101542.91;172652;28;813;-67
2022/06/18 00:31:37;;;;;;;4.17;2.80;;;;;;;22.42;62.40;101543.00;172632;28;982;-67
2022/06/18 00:31:45;;;;;;;4.03;2.80;;;;;;;22.42;61.90;101542.16;172648;28;1136;-68
2022/06/18 00:31:50;;;;;;;3.68;2.80;;;;;;;22.44;61.93;101540.22;172691;28;959;-68
2022/06/18 00:31:56;;;;;;;4.63;2.90;;;;;;;22.39;62.29;101537.94;173253;28;935;-67
2022/06/18 00:32:01;;;;;;;4.88;2.80;;;;;;;22.42;61.80;101543.00;172538;28;1447;-67
2022/06/18 00:32:08;;;;;;;4.67;2.80;;;;;;;22.44;61.80;101545.56;172620;28;868;-67
2022/06/18 00:32:13;;;;;;;4.48;2.84;;;;;;;22.43;61.85;101543.84;172643;28;895;-67
2022/06/18 00:32:19;;;;;;;5.03;2.95;;;;;;;22.44;61.71;101545.56;172178;28;868;-68
2022/06/18 00:32:24;;;;;;;3.87;2.90;;;;;;;22.45;61.69;101541.91;171735;28;982;-67
2022/06/18 00:32:30;;;;;;;3.55;2.90;;;;;;;22.46;61.74;101540.94;171847;28;947;-67
2022/06/18 00:32:35;;;;;;;4.53;2.90;;;;;;;22.48;61.52;101541.66;172652;28;1019;-68
2022/06/18 00:32:41;;;;;;;4.83;2.93;;;;;;;22.48;61.67;101542.50;172620;28;1034;-68
2022/06/18 00:32:47;;;;;;;4.22;2.90;;;;;;;22.49;61.60;101535.38;172677;28;781;-68
2022/06/18 00:32:53;;;;;;;3.95;2.90;;;;;;;22.48;61.75;101547.81;172621;28;876;-68
2022/06/18 00:32:58;;;;;;;4.63;2.90;;;;;;;22.50;61.75;101542.38;171856;28;769;-67
2022/06/18 00:33:04;;;;;;;4.57;3.00;;;;;;;22.50;61.63;101545.03;171232;28;919;-68
2022/06/18 00:33:10;;;;;;;4.00;2.97;;;;;;;22.50;61.81;101532.59;171310;28;1014;-68
2022/06/18 00:33:16;;;;;;;4.65;3.00;;;;;;;22.51;61.83;101536.06;171293;28;829;-68
2022/06/18 00:33:23;;;;;;;5.16;2.98;;;;;;;22.48;62.01;101537.16;171200;28;1015;-68
2022/06/18 00:33:29;;;;;;;4.80;2.83;;;;;;;22.49;61.75;101546.00;171318;28;900;-68
2022/06/18 00:33:36;;;;;;;5.88;2.78;;;;;;;22.49;61.86;101535.38;171293;28;963;-67
2022/06/18 00:33:42;;;;;;;6.84;2.74;;;;;;;22.49;61.75;101543.34;171282;28;869;-68
2022/06/18 00:33:47;;;;;;;6.43;2.72;;;;;;;22.50;61.83;101539.72;171307;28;927;-68
2022/06/18 00:33:52;;;;;;;6.70;2.83;;;;;;;22.51;61.86;101546.72;171286;28;845;-68
2022/06/18 00:33:58;;;;;;;7.43;2.90;;;;;;;22.50;61.81;101545.03;171279;28;860;-67
2022/06/18 00:34:03;;;;;;;6.70;3.00;;;;;;;22.51;61.82;101536.06;171293;28;1018;-67
2022/06/18 00:34:09;;;;;;;6.20;2.90;;;;;;;22.49;61.65;101546.00;171215;28;864;-67
2022/06/18 00:34:15;;;;;;;6.30;2.88;;;;;;;22.49;61.64;101543.34;171265;28;982;-67
2022/06/18 00:34:20;;;;;;;6.20;2.90;;;;;;;22.50;61.57;101537.03;171367;28;912;-68
2022/06/18 00:34:26;;;;;;;5.32;2.80;;;;;;;22.49;61.50;101533.56;171311;28;928;-68
2022/06/18 00:34:31;;;;;;;5.07;2.80;;;;;;;22.50;61.57;101545.88;171209;28;1452;-68
2022/06/18 00:34:37;;;;;;;5.00;2.80;;;;;;;22.49;61.62;101536.22;171320;28;860;-68
2022/06/18 00:34:43;;;;;;;5.10;2.80;;;;;;;22.51;61.64;101538.72;171280;28;840;-68
2022/06/18 00:34:48;;;;;;;4.65;2.80;;;;;;;22.50;61.63;101537.03;171302;28;852;-67
2022/06/18 00:34:54;;;;;;;5.10;2.80;;;;;;;22.47;61.36;101540.81;171301;28;931;-68
2022/06/18 00:35:00;;;;;;;4.50;2.66;;;;;;;22.43;62.01;101544.69;171948;28;900;-68
2022/06/18 00:35:06;;;;;;;3.53;2.60;;;;;;;22.40;62.30;101541.47;172611;28;959;-68
2022/06/18 00:35:12;;;;;;;3.20;2.60;;;;;;;22.36;62.21;101539.03;172650;28;971;-68
2022/06/18 00:35:18;;;;;;;3.75;2.60;;;;;;;22.40;61.89;101544.13;172667;28;867;-68
2022/06/18 00:35:24;;;;;;;3.58;2.70;;;;;;;22.40;61.94;101539.63;172616;28;974;-67
2022/06/18 00:35:29;;;;;;;4.35;2.80;;;;;;;22.43;61.91;101541.19;172537;28;1161;-67
2022/06/18 00:35:36;;;;;;;5.65;2.88;;;;;;;22.41;62.26;101536.00;172646;28;930;-67
2022/06/18 00:35:45;;;;;;;5.45;2.75;;;;;;;22.37;62.34;101539.88;172620;28;887;-67
2022/06/18 00:35:56;;;;;;;4.81;2.70;;;;;;;22.34;62.27;101540.97;172698;28;1048;-67
2022/06/18 00:36:05;;;;;;;4.57;2.76;;;;;;;22.34;62.45;101540.97;172585;28;1199;-68
2022/06/18 00:36:18;;;;;;;4.16;2.94;;;;;;;22.36;62.01;101541.69;172620;28;1061;-67
2022/06/18 00:36:23;;;;;;;5.07;3.04;;;;;;;22.38;61.99;101544.25;172632;28;1243;-68
2022/06/18 00:36:28;;;;;;;4.97;3.00;;;;;;;22.38;62.27;101541.59;172686;28;907;-68
2022/06/18 00:36:39;;;;;;;4.97;2.90;;;;;;;22.38;62.01;101539.75;172691;28;1097;-68
2022/06/18 00:36:44;;;;;;;4.57;2.80;;;;;;;22.41;61.88;101541.31;172694;28;1159;-68
2022/06/18 00:36:50;;;;;;;5.88;2.83;;;;;;;22.42;61.74;101540.34;172730;28;848;-68
2022/06/18 00:36:57;;;;;;;5.97;2.80;;;;;;;22.43;61.86;101543.84;172695;28;836;-68
2022/06/18 00:37:04;;;;;;;5.93;2.80;;;;;;;22.42;61.85;101543.00;172721;28;911;-68
2022/06/18 00:37:16;;;;;;;5.80;2.90;;;;;;;22.44;61.97;101535.75;172686;28;1152;-68
2022/06/18 00:37:22;;;;;;;6.74;2.90;;;;;;;22.45;61.75;101542.78;172656;28;1214;-68
2022/06/18 00:37:27;;;;;;;7.20;2.90;;;;;;;22.46;61.80;101535.63;172696;28;860;-68
2022/06/18 00:37:33;;;;;;;7.13;2.90;;;;;;;22.47;61.69;101545.28;172719;28;852;-67
2022/06/18 00:37:39;;;;;;;7.10;2.80;;;;;;;22.46;61.73;101544.44;172499;28;1303;-68